createdAt,value
2018-06-21T00:00:39.832Z,99.99
2018-06-21T00:01:39.898Z,99.99
2018-06-21T00:02:39.897Z,99.99
2018-06-21T00:03:39.896Z,99.99
2018-06-21T00:04:39.899Z,99.99
2018-06-21T00:05:39.884Z,99.99
2018-06-21T00:06:39.816Z,99.99
2018-06-21T00:07:39.826Z,99.99
2018-06-21T00:08:39.803Z,99.99
2018-06-21T00:09:39.819Z,99.99
2018-06-21T00:10:39.824Z,99.99
2018-06-21T00:11:39.897Z,99.99
2018-06-21T00:12:39.774Z,99.99
2018-06-21T00:13:39.830Z,99.99
2018-06-21T00:14:39.776Z,99.99
2018-06-21T00:15:39.850Z,99.99
2018-06-21T00:16:39.944Z,99.99
2018-06-21T00:17:39.907Z,99.99
2018-06-21T00:18:40.009Z,99.99
2018-06-21T00:19:39.833Z,99.99
2018-06-21T00:26:55.876Z,99.99
2018-06-21T00:27:39.902Z,99.99
2018-06-21T00:32:39.878Z,99.99
2018-06-21T00:33:39.891Z,99.99
2018-06-21T00:34:39.915Z,99.99
2018-06-21T00:35:39.837Z,99.99
2018-06-21T00:36:39.913Z,99.99
2018-06-21T00:37:39.875Z,99.99
2018-06-21T00:38:39.793Z,99.99
2018-06-21T00:39:39.862Z,99.99
2018-06-21T00:40:39.918Z,99.99
2018-06-21T00:41:39.841Z,99.99
2018-06-21T00:42:39.880Z,99.99
2018-06-21T00:43:39.878Z,99.99
2018-06-21T00:44:39.918Z,99.99
2018-06-21T00:45:39.926Z,99.99
2018-06-21T00:46:39.854Z,99.99
2018-06-21T00:47:39.827Z,99.99
2018-06-21T00:48:39.927Z,99.99
2018-06-21T00:49:39.927Z,99.99
2018-06-21T00:50:39.929Z,99.99
2018-06-21T00:51:39.861Z,99.99
2018-06-21T00:52:39.862Z,99.99
2018-06-21T00:53:39.933Z,99.99
2018-06-21T00:54:39.933Z,99.99
2018-06-21T00:55:39.892Z,99.99
2018-06-21T00:56:39.936Z,99.99
2018-06-21T00:57:39.869Z,99.99
2018-06-21T00:58:39.881Z,99.99
2018-06-21T00:59:39.967Z,99.99
2018-06-21T01:00:39.833Z,99.99
2018-06-21T01:01:39.878Z,99.99
2018-06-21T01:02:39.909Z,99.99
2018-06-21T01:03:39.937Z,99.99
2018-06-21T01:04:39.938Z,99.99
2018-06-21T01:05:39.929Z,99.99
2018-06-21T01:06:39.936Z,99.99
2018-06-21T01:07:39.858Z,99.99
2018-06-21T01:08:39.877Z,99.99
2018-06-21T01:09:39.937Z,99.99
2018-06-21T01:10:39.865Z,99.99
2018-06-21T01:11:39.847Z,99.99
2018-06-21T01:12:39.932Z,99.99
2018-06-21T01:13:39.884Z,99.99
2018-06-21T01:14:39.938Z,99.99
2018-06-21T01:15:39.910Z,99.99
2018-06-21T01:16:39.907Z,99.99
2018-06-21T01:17:39.912Z,99.99
2018-06-21T01:18:39.911Z,99.99
2018-06-21T01:19:39.970Z,99.99
2018-06-21T01:20:39.953Z,99.99
2018-06-21T01:21:39.908Z,99.99
2018-06-21T01:22:39.850Z,99.99
2018-06-21T01:23:39.978Z,99.99
2018-06-21T01:24:39.974Z,99.99
2018-06-21T01:25:39.968Z,99.99
2018-06-21T01:26:39.929Z,99.99
2018-06-21T01:27:39.860Z,99.99
2018-06-21T01:28:39.971Z,99.99
2018-06-21T01:29:39.855Z,99.99
2018-06-21T01:30:39.857Z,99.99
2018-06-21T01:31:39.862Z,99.99
2018-06-21T01:32:39.989Z,99.99
2018-06-21T01:33:39.997Z,99.99
2018-06-21T01:34:39.867Z,99.99
2018-06-21T01:35:39.988Z,99.99
2018-06-21T01:36:39.996Z,99.99
2018-06-21T01:37:39.898Z,99.99
2018-06-21T01:38:39.984Z,99.99
2018-06-21T01:39:39.864Z,99.99
2018-06-21T01:40:39.978Z,99.99
2018-06-21T01:41:39.960Z,99.99
2018-06-21T01:42:40.004Z,99.99
2018-06-21T01:43:39.871Z,99.99
2018-06-21T01:44:40.040Z,99.99
2018-06-21T01:45:39.992Z,99.99
2018-06-21T01:46:39.864Z,99.99
2018-06-21T01:47:39.867Z,99.99
2018-06-21T01:48:39.968Z,99.99
2018-06-21T01:49:39.938Z,99.99
2018-06-21T01:50:40.005Z,99.99
2018-06-21T01:51:39.925Z,99.99
2018-06-21T01:52:39.942Z,99.99
2018-06-21T01:53:39.968Z,99.99
2018-06-21T01:54:39.953Z,99.99
2018-06-21T01:55:39.950Z,99.99
2018-06-21T01:56:39.936Z,99.99
2018-06-21T01:57:39.975Z,99.99
2018-06-21T01:58:40.020Z,99.99
2018-06-21T01:59:40.033Z,99.99
2018-06-21T02:00:39.947Z,99.99
2018-06-21T02:01:39.918Z,99.99
2018-06-21T02:02:39.948Z,99.99
2018-06-21T02:03:39.917Z,99.99
2018-06-21T02:04:39.896Z,99.99
2018-06-21T02:05:39.978Z,99.99
2018-06-21T02:06:39.917Z,99.99
2018-06-21T02:07:39.911Z,99.99
2018-06-21T02:08:39.984Z,99.99
2018-06-21T02:09:39.918Z,99.99
2018-06-21T02:10:39.982Z,99.99
2018-06-21T02:11:39.917Z,99.99
2018-06-21T02:12:39.913Z,99.99
2018-06-21T02:13:39.989Z,99.99
2018-06-21T02:14:39.919Z,99.99
2018-06-21T02:15:39.950Z,99.99
2018-06-21T02:16:39.913Z,99.99
2018-06-21T02:17:39.910Z,99.99
2018-06-21T02:18:39.948Z,99.99
2018-06-21T02:19:40.015Z,99.99
2018-06-21T02:20:39.945Z,99.99
2018-06-21T02:21:39.986Z,99.99
2018-06-21T02:22:39.931Z,99.99
2018-06-21T02:23:39.954Z,99.99
2018-06-21T02:24:39.893Z,99.99
2018-06-21T02:25:39.986Z,99.99
2018-06-21T02:26:39.982Z,99.99
2018-06-21T02:27:39.919Z,99.99
2018-06-21T02:28:39.934Z,99.99
2018-06-21T02:29:39.899Z,99.99
2018-06-21T02:30:39.991Z,99.99
2018-06-21T02:31:39.901Z,99.99
2018-06-21T02:32:39.995Z,99.99
2018-06-21T02:33:39.992Z,99.99
2018-06-21T02:34:39.990Z,99.99
2018-06-21T02:35:39.995Z,99.99
2018-06-21T02:36:39.997Z,99.99
2018-06-21T02:37:40.011Z,99.99
2018-06-21T02:38:40.022Z,99.99
2018-06-21T02:39:40.031Z,99.99
2018-06-21T02:40:40.000Z,99.99
2018-06-21T02:41:40.034Z,99.99
2018-06-21T02:42:39.967Z,99.99
2018-06-21T02:43:40.027Z,99.99
2018-06-21T02:44:39.974Z,99.99
2018-06-21T02:45:40.027Z,99.99
2018-06-21T02:46:39.934Z,99.99
2018-06-21T02:47:39.899Z,99.99
2018-06-21T02:48:39.873Z,99.99
2018-06-21T02:49:39.934Z,99.99
2018-06-21T02:50:39.935Z,99.99
2018-06-21T02:51:39.929Z,99.99
2018-06-21T02:52:40.005Z,99.99
2018-06-21T02:53:39.904Z,99.99
2018-06-21T02:54:39.971Z,99.99
2018-06-21T02:55:39.904Z,99.99
2018-06-21T02:56:40.016Z,99.99
2018-06-21T02:57:39.963Z,99.99
2018-06-21T02:58:39.985Z,99.99
2018-06-21T02:59:40.057Z,99.99
2018-06-21T03:00:39.918Z,99.99
2018-06-21T03:01:40.013Z,99.99
2018-06-21T03:02:39.936Z,99.99
2018-06-21T03:03:39.924Z,99.99
2018-06-21T03:04:40.020Z,99.99
2018-06-21T03:05:39.956Z,99.99
2018-06-21T03:06:40.018Z,99.99
2018-06-21T03:07:40.046Z,99.99
2018-06-21T03:08:39.992Z,99.99
2018-06-21T03:09:40.051Z,99.99
2018-06-21T03:10:40.048Z,99.99
2018-06-21T03:11:39.924Z,99.99
2018-06-21T03:12:40.060Z,99.99
2018-06-21T03:13:40.045Z,99.99
2018-06-21T03:14:40.002Z,99.99
2018-06-21T03:15:39.994Z,99.99
2018-06-21T03:16:39.957Z,99.99
2018-06-21T03:17:39.963Z,99.99
2018-06-21T03:18:40.027Z,99.99
2018-06-21T03:19:39.968Z,99.99
2018-06-21T03:20:40.031Z,99.99
2018-06-21T03:21:39.984Z,99.99
2018-06-21T03:22:40.029Z,99.99
2018-06-21T03:23:40.028Z,99.99
2018-06-21T03:24:40.029Z,99.99
2018-06-21T03:25:40.027Z,99.99
2018-06-21T03:26:39.934Z,99.99
2018-06-21T03:27:40.050Z,99.99
2018-06-21T03:28:39.967Z,99.99
2018-06-21T03:29:40.030Z,99.99
2018-06-21T03:30:40.030Z,99.99
2018-06-21T03:31:39.971Z,99.99
2018-06-21T03:32:39.958Z,99.99
2018-06-21T03:33:39.927Z,99.99
2018-06-21T03:34:39.944Z,99.99
2018-06-21T03:35:39.993Z,99.99
2018-06-21T03:36:39.972Z,99.99
2018-06-21T03:37:40.040Z,99.99
2018-06-21T03:38:39.975Z,99.99
2018-06-21T03:39:40.005Z,99.99
2018-06-21T03:40:39.976Z,99.99
2018-06-21T03:41:39.976Z,99.99
2018-06-21T03:42:40.046Z,99.99
2018-06-21T03:43:40.051Z,99.99
2018-06-21T03:44:39.973Z,99.99
2018-06-21T03:45:40.045Z,99.99
2018-06-21T03:46:39.989Z,99.99
2018-06-21T03:47:39.897Z,99.99
2018-06-21T03:48:39.897Z,99.99
2018-06-21T03:49:39.997Z,99.99
2018-06-21T03:50:39.898Z,99.99
2018-06-21T03:51:39.995Z,99.99
2018-06-21T03:52:39.994Z,99.99
2018-06-21T03:53:39.946Z,99.99
2018-06-21T03:54:39.901Z,99.99
2018-06-21T03:55:39.991Z,99.99
2018-06-21T03:56:39.920Z,99.99
2018-06-21T03:57:40.004Z,99.99
2018-06-21T03:58:39.955Z,99.99
2018-06-21T03:59:39.925Z,99.99
2018-06-21T04:00:40.007Z,99.99
2018-06-21T04:01:39.964Z,99.99
2018-06-21T04:02:39.923Z,99.99
2018-06-21T04:03:40.071Z,99.99
2018-06-21T04:04:39.958Z,99.99
2018-06-21T04:05:39.988Z,99.99
2018-06-21T04:06:40.029Z,99.99
2018-06-21T04:07:40.035Z,99.99
2018-06-21T04:08:40.094Z,99.99
2018-06-21T04:09:40.061Z,99.99
2018-06-21T04:10:39.964Z,99.99
2018-06-21T04:11:40.019Z,99.99
2018-06-21T04:12:40.037Z,99.99
2018-06-21T04:13:40.036Z,99.99
2018-06-21T04:14:40.025Z,99.99
2018-06-21T04:15:40.066Z,99.99
2018-06-21T04:16:40.028Z,99.99
2018-06-21T04:17:40.005Z,99.99
2018-06-21T04:18:40.081Z,99.99
2018-06-21T04:19:40.101Z,99.99
2018-06-21T04:20:40.000Z,99.99
2018-06-21T04:21:40.067Z,99.99
2018-06-21T04:22:40.000Z,99.99
2018-06-21T04:23:40.068Z,99.99
2018-06-21T04:24:40.032Z,99.99
2018-06-21T04:25:40.005Z,99.99
2018-06-21T04:26:40.055Z,99.99
2018-06-21T04:27:40.096Z,99.99
2018-06-21T04:28:39.994Z,99.99
2018-06-21T04:29:40.112Z,99.99
2018-06-21T04:30:39.975Z,99.99
2018-06-21T04:31:40.077Z,99.99
2018-06-21T04:32:40.055Z,99.99
2018-06-21T04:33:39.980Z,99.99
2018-06-21T04:34:39.983Z,99.99
2018-06-21T04:35:40.044Z,99.99
2018-06-21T04:36:39.985Z,99.99
2018-06-21T04:37:39.998Z,99.99
2018-06-21T04:38:40.082Z,99.99
2018-06-21T04:39:40.098Z,99.99
2018-06-21T04:40:40.079Z,99.99
2018-06-21T04:41:39.999Z,99.99
2018-06-21T04:42:40.104Z,99.99
2018-06-21T04:43:40.122Z,99.99
2018-06-21T04:44:40.085Z,99.99
2018-06-21T04:45:40.082Z,99.99
2018-06-21T04:46:40.074Z,99.99
2018-06-21T04:47:39.957Z,99.99
2018-06-21T04:48:40.077Z,99.99
2018-06-21T04:49:40.080Z,99.99
2018-06-21T04:50:39.992Z,99.99
2018-06-21T04:51:39.988Z,99.99
2018-06-21T04:52:40.036Z,99.99
2018-06-21T04:53:40.235Z,99.99
2018-06-21T04:54:40.085Z,99.99
2018-06-21T04:55:39.998Z,99.99
2018-06-21T04:56:40.092Z,99.99
2018-06-21T04:57:40.029Z,99.99
2018-06-21T04:58:40.025Z,99.99
2018-06-21T04:59:40.092Z,99.99
2018-06-21T05:00:40.032Z,99.99
2018-06-21T05:01:40.032Z,99.99
2018-06-21T05:02:40.030Z,99.99
2018-06-21T05:03:40.035Z,99.99
2018-06-21T05:04:40.096Z,99.99
2018-06-21T05:05:40.100Z,99.99
2018-06-21T05:06:40.113Z,99.99
2018-06-21T05:07:40.065Z,99.99
2018-06-21T05:08:40.054Z,99.99
2018-06-21T05:09:40.055Z,99.99
2018-06-21T05:10:40.073Z,99.86
2018-06-21T05:11:40.098Z,99.81
2018-06-21T05:12:40.065Z,99.70
2018-06-21T05:13:40.081Z,99.45
2018-06-21T05:14:40.104Z,99.32
2018-06-21T05:15:40.137Z,99.07
2018-06-21T05:16:40.055Z,98.91
2018-06-21T05:17:40.013Z,98.69
2018-06-21T05:18:40.100Z,98.59
2018-06-21T05:19:40.008Z,98.31
2018-06-21T05:20:40.015Z,98.10
2018-06-21T05:21:40.101Z,97.96
2018-06-21T05:22:40.110Z,97.85
2018-06-21T05:23:39.978Z,97.83
2018-06-21T05:24:40.119Z,97.66
2018-06-21T05:25:40.111Z,97.66
2018-06-21T05:26:40.141Z,97.53
2018-06-21T05:27:40.073Z,97.21
2018-06-21T05:28:40.111Z,96.91
2018-06-21T05:29:40.017Z,96.69
2018-06-21T05:30:40.033Z,96.61
2018-06-21T05:31:40.118Z,96.47
2018-06-21T05:32:40.014Z,96.28
2018-06-21T05:33:40.148Z,96.20
2018-06-21T05:34:40.088Z,95.72
2018-06-21T05:35:40.039Z,95.34
2018-06-21T05:36:40.039Z,95.15
2018-06-21T05:37:40.032Z,95.04
2018-06-21T05:38:40.028Z,94.77
2018-06-21T05:39:39.991Z,94.21
2018-06-21T05:40:40.027Z,94.04
2018-06-21T05:41:40.010Z,93.83
2018-06-21T05:42:40.058Z,93.26
2018-06-21T05:43:40.012Z,93.05
2018-06-21T05:44:40.107Z,93.10
2018-06-21T05:45:39.998Z,92.97
2018-06-21T05:46:40.059Z,92.62
2018-06-21T05:47:40.063Z,91.97
2018-06-21T05:48:40.016Z,91.95
2018-06-21T05:49:40.130Z,91.55
2018-06-21T05:50:40.126Z,91.60
2018-06-21T05:51:40.059Z,90.88
2018-06-21T05:52:40.101Z,90.50
2018-06-21T05:53:40.137Z,90.42
2018-06-21T05:54:40.013Z,89.94
2018-06-21T05:55:40.069Z,89.54
2018-06-21T05:56:40.165Z,89.24
2018-06-21T05:57:40.074Z,88.68
2018-06-21T05:58:40.064Z,87.74
2018-06-21T05:59:40.066Z,87.00
2018-06-21T06:00:40.072Z,86.30
2018-06-21T06:01:40.132Z,86.09
2018-06-21T06:02:40.069Z,84.97
2018-06-21T06:03:40.174Z,84.81
2018-06-21T06:04:40.133Z,84.71
2018-06-21T06:05:40.201Z,84.39
2018-06-21T06:06:40.098Z,83.38
2018-06-21T06:07:40.098Z,83.65
2018-06-21T06:08:40.036Z,82.53
2018-06-21T06:09:40.070Z,81.00
2018-06-21T06:10:40.034Z,80.76
2018-06-21T06:11:40.073Z,80.79
2018-06-21T06:12:40.126Z,80.81
2018-06-21T06:13:40.126Z,80.55
2018-06-21T06:14:40.104Z,79.83
2018-06-21T06:15:40.045Z,78.57
2018-06-21T06:16:40.142Z,77.47
2018-06-21T06:17:40.081Z,77.44
2018-06-21T06:18:40.195Z,76.78
2018-06-21T06:19:40.140Z,75.60
2018-06-21T06:20:40.150Z,75.34
2018-06-21T06:21:40.077Z,75.39
2018-06-21T06:22:40.151Z,74.13
2018-06-21T06:23:40.082Z,74.42
2018-06-21T06:24:40.086Z,74.58
2018-06-21T06:25:40.154Z,74.63
2018-06-21T06:26:40.154Z,74.50
2018-06-21T06:27:40.082Z,75.07
2018-06-21T06:28:40.175Z,75.49
2018-06-21T06:29:40.155Z,75.84
2018-06-21T06:30:40.152Z,75.52
2018-06-21T06:31:40.085Z,74.52
2018-06-21T06:32:40.091Z,75.05
2018-06-21T06:33:40.157Z,75.37
2018-06-21T06:34:40.179Z,74.08
2018-06-21T06:35:40.090Z,73.79
2018-06-21T06:36:40.155Z,74.08
2018-06-21T06:37:40.091Z,72.28
2018-06-21T06:38:40.109Z,72.28
2018-06-21T06:39:40.099Z,73.14
2018-06-21T06:40:40.094Z,73.16
2018-06-21T06:41:40.131Z,72.51
2018-06-21T06:42:40.161Z,72.80
2018-06-21T06:43:40.135Z,72.25
2018-06-21T06:44:40.093Z,73.19
2018-06-21T06:45:40.097Z,72.90
2018-06-21T06:46:40.123Z,72.72
2018-06-21T06:47:40.070Z,70.48
2018-06-21T06:48:40.142Z,69.77
2018-06-21T06:49:40.135Z,70.11
2018-06-21T06:50:40.169Z,71.13
2018-06-21T06:51:40.105Z,71.65
2018-06-21T06:52:40.087Z,70.97
2018-06-21T06:53:40.193Z,71.15
2018-06-21T06:54:40.252Z,71.36
2018-06-21T06:55:40.201Z,70.64
2018-06-21T06:56:40.037Z,70.64
2018-06-21T06:57:40.165Z,70.79
2018-06-21T06:58:40.167Z,70.24
2018-06-21T06:59:40.077Z,70.01
2018-06-21T07:00:40.078Z,68.81
2018-06-21T07:01:40.164Z,69.72
2018-06-21T07:02:40.052Z,68.97
2018-06-21T07:03:40.177Z,68.99
2018-06-21T07:04:40.083Z,68.32
2018-06-21T07:05:40.061Z,68.58
2018-06-21T07:06:40.153Z,69.34
2018-06-21T07:07:40.205Z,68.08
2018-06-21T07:08:40.157Z,67.75
2018-06-21T07:09:40.178Z,67.25
2018-06-21T07:10:40.146Z,67.41
2018-06-21T07:11:40.149Z,68.24
2018-06-21T07:12:40.151Z,69.07
2018-06-21T07:13:40.146Z,69.54
2018-06-21T07:14:40.202Z,67.96
2018-06-21T07:15:40.162Z,70.58
2018-06-21T07:16:40.146Z,68.27
2018-06-21T07:17:40.215Z,68.29
2018-06-21T07:18:40.156Z,66.77
2018-06-21T07:19:40.139Z,65.26
2018-06-21T07:20:40.106Z,65.65
2018-06-21T07:21:40.190Z,66.04
2018-06-21T07:22:40.156Z,65.55
2018-06-21T07:23:40.161Z,65.18
2018-06-21T07:24:40.215Z,65.29
2018-06-21T07:25:40.196Z,66.01
2018-06-21T07:26:40.076Z,65.86
2018-06-21T07:27:40.056Z,66.09
2018-06-21T07:28:40.127Z,66.71
2018-06-21T07:29:40.092Z,66.22
2018-06-21T07:30:40.125Z,67.18
2018-06-21T07:31:40.115Z,66.66
2018-06-21T07:32:40.082Z,66.27
2018-06-21T07:33:40.142Z,67.08
2018-06-21T07:34:40.066Z,68.14
2018-06-21T07:35:40.128Z,68.16
2018-06-21T07:36:40.132Z,68.32
2018-06-21T07:37:40.195Z,68.71
2018-06-21T07:38:40.135Z,68.97
2018-06-21T07:39:40.201Z,69.23
2018-06-21T07:40:40.198Z,69.38
2018-06-21T07:41:40.141Z,69.15
2018-06-21T07:42:40.133Z,69.36
2018-06-21T07:43:40.134Z,69.96
2018-06-21T07:44:40.140Z,70.17
2018-06-21T07:45:40.203Z,70.14
2018-06-21T07:46:40.230Z,70.37
2018-06-21T07:47:40.170Z,71.36
2018-06-21T07:48:40.226Z,70.29
2018-06-21T07:50:40.241Z,69.98
2018-06-21T07:51:40.238Z,70.24
2018-06-21T07:52:40.177Z,70.60
2018-06-21T07:53:40.177Z,70.82
2018-06-21T07:54:40.116Z,71.39
2018-06-21T07:55:40.204Z,71.34
2018-06-21T07:56:40.079Z,71.57
2018-06-21T07:57:40.079Z,71.65
2018-06-21T07:58:40.138Z,71.89
2018-06-21T07:59:40.146Z,71.44
2018-06-21T08:00:40.110Z,72.41
2018-06-21T08:01:40.147Z,72.80
2018-06-21T08:02:40.190Z,73.69
2018-06-21T08:03:40.136Z,74.40
2018-06-21T08:04:40.199Z,75.39
2018-06-21T08:05:40.202Z,75.31
2018-06-21T08:06:40.152Z,75.39
2018-06-21T08:07:40.121Z,75.65
2018-06-21T08:08:40.207Z,75.89
2018-06-21T08:09:40.156Z,76.54
2018-06-21T08:10:40.213Z,76.99
2018-06-21T08:11:40.175Z,76.97
2018-06-21T08:12:40.157Z,77.15
2018-06-21T08:13:40.204Z,78.89
2018-06-21T08:14:40.212Z,79.81
2018-06-21T08:15:40.209Z,81.26
2018-06-21T08:16:40.195Z,82.35
2018-06-21T08:17:40.228Z,84.34
2018-06-21T08:18:40.251Z,86.44
2018-06-21T08:19:40.257Z,87.82
2018-06-21T08:20:40.260Z,90.26
2018-06-21T08:21:40.135Z,91.03
2018-06-21T08:22:40.132Z,92.22
2018-06-21T08:23:40.265Z,92.76
2018-06-21T08:24:40.205Z,94.04
2018-06-21T08:25:40.226Z,95.50
2018-06-21T08:26:40.248Z,96.15
2018-06-21T08:27:40.169Z,96.15
2018-06-21T08:28:40.233Z,96.69
2018-06-21T08:29:40.234Z,97.28
2018-06-21T08:30:40.237Z,98.26
2018-06-21T08:31:40.165Z,98.31
2018-06-21T08:32:40.165Z,97.74
2018-06-21T08:33:40.167Z,97.55
2018-06-21T08:34:40.173Z,98.02
2018-06-21T08:35:40.240Z,98.72
2018-06-21T08:36:40.140Z,97.07
2018-06-21T08:37:40.117Z,96.85
2018-06-21T08:38:40.188Z,96.85
2018-06-21T08:39:40.137Z,96.91
2018-06-21T08:40:40.180Z,96.99
2018-06-21T08:41:40.097Z,97.36
2018-06-21T08:42:40.138Z,97.72
2018-06-21T08:43:40.187Z,97.69
2018-06-21T08:44:40.144Z,97.72
2018-06-21T08:45:40.213Z,97.93
2018-06-21T08:46:40.234Z,98.23
2018-06-21T08:47:40.178Z,98.12
2018-06-21T08:48:40.202Z,98.72
2018-06-21T08:49:40.246Z,99.02
2018-06-21T08:50:40.238Z,97.91
2018-06-21T08:51:40.182Z,97.66
2018-06-21T08:52:40.248Z,97.66
2018-06-21T08:53:40.247Z,98.12
2018-06-21T08:54:40.185Z,98.42
2018-06-21T08:55:40.271Z,98.64
2018-06-21T08:56:40.241Z,98.88
2018-06-21T08:57:40.184Z,99.07
2018-06-21T08:58:40.184Z,99.02
2018-06-21T08:59:40.183Z,99.07
2018-06-21T09:00:40.186Z,99.13
2018-06-21T09:01:40.252Z,99.45
2018-06-21T09:02:40.218Z,99.26
2018-06-21T09:03:40.285Z,99.53
2018-06-21T09:04:40.261Z,99.67
2018-06-21T09:05:40.190Z,99.45
2018-06-21T09:06:40.255Z,99.10
2018-06-21T09:07:40.145Z,99.13
2018-06-21T09:08:40.243Z,99.02
2018-06-21T09:09:40.247Z,98.99
2018-06-21T09:10:40.182Z,99.07
2018-06-21T09:11:40.238Z,99.10
2018-06-21T09:12:40.219Z,99.21
2018-06-21T09:13:40.130Z,98.48
2018-06-21T09:14:40.246Z,98.21
2018-06-21T09:15:40.201Z,97.10
2018-06-21T09:16:40.224Z,96.74
2018-06-21T09:17:40.167Z,96.50
2018-06-21T09:18:40.296Z,96.61
2018-06-21T09:19:40.230Z,95.77
2018-06-21T09:20:40.167Z,94.99
2018-06-21T09:21:40.301Z,95.53
2018-06-21T09:22:40.309Z,96.07
2018-06-21T09:23:40.230Z,96.39
2018-06-21T09:24:40.285Z,96.64
2018-06-21T09:25:40.307Z,96.91
2018-06-21T09:26:40.236Z,96.42
2018-06-21T09:27:40.235Z,96.15
2018-06-21T09:28:40.272Z,96.85
2018-06-21T09:29:40.291Z,96.23
2018-06-21T09:30:40.308Z,96.15
2018-06-21T09:31:40.303Z,95.91
2018-06-21T09:32:40.240Z,95.39
2018-06-21T09:33:40.233Z,94.83
2018-06-21T09:34:40.297Z,94.56
2018-06-21T09:35:40.302Z,94.75
2018-06-21T09:36:40.177Z,95.01
2018-06-21T09:37:40.312Z,94.99
2018-06-21T09:38:40.239Z,94.10
2018-06-21T09:39:40.251Z,94.02
2018-06-21T09:40:40.298Z,93.64
2018-06-21T09:41:40.180Z,93.64
2018-06-21T09:42:40.236Z,93.70
2018-06-21T09:43:50.296Z,93.99
2018-06-21T09:44:40.242Z,94.02
2018-06-21T09:45:40.281Z,93.56
2018-06-21T09:46:40.219Z,93.75
2018-06-21T09:47:40.241Z,93.51
2018-06-21T09:48:40.283Z,93.40
2018-06-21T09:49:40.189Z,92.54
2018-06-21T09:50:40.266Z,93.18
2018-06-21T09:51:40.307Z,91.84
2018-06-21T09:52:40.247Z,89.27
2018-06-21T09:53:40.260Z,88.73
2018-06-21T09:54:40.302Z,88.79
2018-06-21T09:55:40.246Z,88.79
2018-06-21T09:56:40.284Z,88.50
2018-06-21T09:57:40.227Z,89.27
2018-06-21T09:58:40.246Z,88.81
2018-06-21T09:59:40.271Z,89.19
2018-06-21T10:00:40.195Z,86.68
2018-06-21T10:01:40.257Z,87.37
2018-06-21T10:02:40.311Z,87.82
2018-06-21T10:03:40.294Z,88.36
2018-06-21T10:04:40.260Z,88.44
2018-06-21T10:05:40.195Z,88.97
2018-06-21T10:06:40.321Z,88.36
2018-06-21T10:07:40.232Z,88.54
2018-06-21T10:08:40.231Z,88.65
2018-06-21T10:09:40.299Z,88.33
2018-06-21T10:10:40.229Z,89.03
2018-06-21T10:11:40.234Z,89.35
2018-06-21T10:12:40.237Z,89.62
2018-06-21T10:13:40.194Z,89.62
2018-06-21T10:14:40.234Z,89.29
2018-06-21T10:15:40.326Z,90.18
2018-06-21T10:16:40.302Z,89.19
2018-06-21T10:17:40.244Z,87.32
2018-06-21T10:18:40.307Z,87.43
2018-06-21T10:19:40.308Z,86.65
2018-06-21T10:20:40.240Z,87.21
2018-06-21T10:21:40.237Z,88.44
2018-06-21T10:22:40.305Z,89.00
2018-06-21T10:23:40.236Z,87.37
2018-06-21T10:24:40.308Z,86.71
2018-06-21T10:25:40.241Z,87.02
2018-06-21T10:26:40.310Z,85.11
2018-06-21T10:27:40.335Z,85.43
2018-06-21T10:28:40.345Z,85.40
2018-06-21T10:29:40.344Z,83.36
2018-06-21T10:30:40.310Z,83.22
2018-06-21T10:31:40.216Z,81.10
2018-06-21T10:32:40.344Z,80.73
2018-06-21T10:33:40.252Z,80.10
2018-06-21T10:34:40.316Z,80.29
2018-06-21T10:35:40.341Z,79.07
2018-06-21T10:36:40.285Z,80.79
2018-06-21T10:37:40.256Z,78.97
2018-06-21T10:38:40.322Z,76.73
2018-06-21T10:39:40.318Z,75.31
2018-06-21T10:40:40.253Z,76.12
2018-06-21T10:41:40.331Z,76.04
2018-06-21T10:42:40.351Z,76.10
2018-06-21T10:43:40.322Z,74.71
2018-06-21T10:44:40.250Z,73.77
2018-06-21T10:45:40.320Z,73.71
2018-06-21T10:46:40.257Z,74.68
2018-06-21T10:47:40.336Z,72.83
2018-06-21T10:48:40.261Z,72.95
2018-06-21T10:49:40.345Z,72.41
2018-06-21T10:50:40.285Z,72.93
2018-06-21T10:51:40.355Z,73.37
2018-06-21T10:52:40.298Z,73.06
2018-06-21T10:53:40.365Z,71.81
2018-06-21T10:54:40.360Z,68.99
2018-06-21T10:55:40.360Z,68.58
2018-06-21T10:56:40.283Z,68.19
2018-06-21T10:57:40.259Z,66.53
2018-06-21T10:58:40.264Z,65.24
2018-06-21T10:59:40.330Z,66.66
2018-06-21T11:00:40.337Z,65.81
2018-06-21T11:01:40.347Z,66.25
2018-06-21T11:02:40.266Z,62.87
2018-06-21T11:03:40.346Z,64.98
2018-06-21T11:04:40.270Z,64.10
2018-06-21T11:05:40.338Z,65.08
2018-06-21T11:06:40.272Z,65.81
2018-06-21T11:07:40.270Z,66.25
2018-06-21T11:08:40.388Z,65.24
2018-06-21T11:09:40.351Z,63.54
2018-06-21T11:10:40.274Z,65.29
2018-06-21T11:11:40.273Z,64.05
2018-06-21T11:12:40.342Z,65.26
2018-06-21T11:13:40.278Z,65.73
2018-06-21T11:14:40.360Z,65.89
2018-06-21T11:15:40.292Z,65.26
2018-06-21T11:16:40.362Z,65.68
2018-06-21T11:17:40.377Z,62.61
2018-06-21T11:18:40.313Z,64.08
2018-06-21T11:19:40.374Z,62.82
2018-06-21T11:20:40.250Z,62.53
2018-06-21T11:21:40.307Z,61.99
2018-06-21T11:22:40.378Z,62.43
2018-06-21T11:23:40.312Z,64.00
2018-06-21T11:24:40.376Z,63.20
2018-06-21T11:25:40.317Z,64.05
2018-06-21T11:26:40.413Z,61.40
2018-06-21T11:27:40.343Z,60.81
2018-06-21T11:28:40.276Z,61.63
2018-06-21T11:29:40.285Z,60.22
2018-06-21T11:30:40.351Z,59.86
2018-06-21T11:31:40.351Z,58.23
2018-06-21T11:32:40.354Z,58.66
2018-06-21T11:33:40.293Z,59.45
2018-06-21T11:34:40.285Z,60.40
2018-06-21T11:35:40.352Z,60.97
2018-06-21T11:36:40.292Z,62.66
2018-06-21T11:37:40.354Z,64.00
2018-06-21T11:38:40.298Z,64.36
2018-06-21T11:39:40.357Z,63.77
2018-06-21T11:40:40.363Z,64.34
2018-06-21T11:41:40.359Z,62.99
2018-06-21T11:42:40.294Z,63.33
2018-06-21T11:43:40.295Z,62.12
2018-06-21T11:44:40.325Z,60.99
2018-06-21T11:45:40.294Z,61.35
2018-06-21T11:46:40.423Z,60.94
2018-06-21T11:47:40.361Z,59.45
2018-06-21T11:48:40.294Z,58.71
2018-06-21T11:49:40.367Z,57.56
2018-06-21T11:50:40.297Z,58.74
2018-06-21T11:51:40.303Z,57.48
2018-06-21T11:52:40.366Z,58.27
2018-06-21T11:53:40.298Z,59.04
2018-06-21T11:54:40.365Z,59.40
2018-06-21T11:55:40.327Z,58.56
2018-06-21T11:56:40.300Z,58.84
2018-06-21T11:57:40.339Z,58.43
2018-06-21T11:58:40.346Z,58.71
2018-06-21T11:59:40.327Z,59.15
2018-06-21T12:00:40.315Z,59.45
2018-06-21T12:01:40.431Z,56.59
2018-06-21T12:02:40.398Z,55.91
2018-06-21T12:03:40.336Z,56.93
2018-06-21T12:04:40.379Z,57.18
2018-06-21T12:05:40.416Z,58.27
2018-06-21T12:06:40.417Z,56.59
2018-06-21T12:07:40.362Z,57.97
2018-06-21T12:08:40.305Z,55.37
2018-06-21T12:09:40.242Z,55.78
2018-06-21T12:10:40.312Z,56.18
2018-06-21T12:11:40.301Z,54.04
2018-06-21T12:12:40.270Z,54.58
2018-06-21T12:13:40.312Z,56.21
2018-06-21T12:14:40.251Z,55.96
2018-06-21T12:15:40.254Z,54.20
2018-06-21T12:16:40.280Z,53.62
2018-06-21T12:17:40.413Z,51.11
2018-06-21T12:18:40.430Z,49.92
2018-06-21T12:19:40.385Z,49.04
2018-06-21T12:20:40.360Z,49.52
2018-06-21T12:21:40.364Z,50.33
2018-06-21T12:22:40.289Z,48.19
2018-06-21T12:23:40.364Z,47.91
2018-06-21T12:24:40.362Z,48.48
2018-06-21T12:25:40.362Z,45.85
2018-06-21T12:26:40.392Z,45.62
2018-06-21T12:27:40.326Z,45.48
2018-06-21T12:28:40.316Z,44.80
2018-06-21T12:29:40.296Z,44.50
2018-06-21T12:30:40.368Z,44.07
2018-06-21T12:31:40.352Z,43.72
2018-06-21T12:32:40.360Z,45.68
2018-06-21T12:33:40.303Z,41.08
2018-06-21T12:34:40.417Z,42.70
2018-06-21T12:35:40.352Z,42.10
2018-06-21T12:36:40.436Z,41.82
2018-06-21T12:37:40.343Z,41.28
2018-06-21T12:38:40.304Z,41.78
2018-06-21T12:39:40.300Z,40.54
2018-06-21T12:40:40.343Z,38.28
2018-06-21T12:41:40.300Z,40.36
2018-06-21T12:42:40.345Z,42.40
2018-06-21T12:43:40.305Z,41.03
2018-06-21T12:44:40.347Z,41.73
2018-06-21T12:45:40.344Z,42.55
2018-06-21T12:46:40.361Z,42.50
2018-06-21T12:47:40.335Z,39.66
2018-06-21T12:48:40.341Z,37.22
2018-06-21T12:49:40.341Z,36.55
2018-06-21T12:50:40.408Z,37.29
2018-06-21T12:51:40.406Z,35.90
2018-06-21T12:52:40.347Z,37.41
2018-06-21T12:53:40.443Z,36.77
2018-06-21T12:54:40.411Z,38.28
2018-06-21T12:55:40.343Z,37.76
2018-06-21T12:56:40.343Z,35.51
2018-06-21T12:57:40.438Z,35.71
2018-06-21T12:58:40.388Z,36.25
2018-06-21T12:59:40.443Z,35.51
2018-06-21T13:00:40.363Z,37.81
2018-06-21T13:01:40.380Z,36.62
2018-06-21T13:02:40.437Z,37.39
2018-06-21T13:03:40.414Z,38.43